createdAt,value
2019-05-21T00:02:57.331Z,9.18
2019-05-21T00:06:03.920Z,9.43
2019-05-21T00:09:10.520Z,7.92
2019-05-21T00:12:17.286Z,6.97
2019-05-21T00:15:23.905Z,8.13
2019-05-21T00:18:30.335Z,7.42
2019-05-21T00:21:37.190Z,7.65
2019-05-21T00:24:48.432Z,7.62
2019-05-21T00:28:01.279Z,6.78
2019-05-21T00:32:03.949Z,6.03
2019-05-21T00:36:04.935Z,7.12
2019-05-21T00:40:05.551Z,4.97
2019-05-21T00:43:12.290Z,7.25
2019-05-21T00:46:18.798Z,7.45
2019-05-21T00:49:25.531Z,7.47
2019-05-21T00:52:32.148Z,7.42
2019-05-21T00:55:38.771Z,4.55
2019-05-21T00:58:46.335Z,7.75
2019-05-21T01:01:53.033Z,7.10
2019-05-21T01:05:01.353Z,8.38
2019-05-21T01:08:08.053Z,7.28
2019-05-21T01:11:14.695Z,7.28
2019-05-21T01:14:21.255Z,6.17
2019-05-21T01:17:27.830Z,5.80
2019-05-21T01:20:34.428Z,5.62
2019-05-21T01:23:43.798Z,7.47
2019-05-21T01:26:50.707Z,9.08
2019-05-21T01:29:57.275Z,7.83
2019-05-21T01:33:03.741Z,7.10
2019-05-21T01:36:10.756Z,6.80
2019-05-21T01:39:17.446Z,13.28
2019-05-21T01:42:23.981Z,7.17
2019-05-21T01:45:30.780Z,7.28
2019-05-21T01:48:37.294Z,7.40
2019-05-21T01:51:45.058Z,6.62
2019-05-21T01:54:52.792Z,8.25
2019-05-21T01:57:59.312Z,9.20
2019-05-21T02:01:05.970Z,7.28
2019-05-21T02:04:12.429Z,7.37
2019-05-21T02:07:18.883Z,7.47
2019-05-21T02:10:25.568Z,8.90
2019-05-21T02:13:32.142Z,10.48
2019-05-21T02:16:38.772Z,10.90
2019-05-21T02:19:48.352Z,10.78
2019-05-21T02:22:55.019Z,10.63
2019-05-21T02:26:02.015Z,12.00
2019-05-21T02:29:08.515Z,9.95
2019-05-21T02:32:15.064Z,10.38
2019-05-21T02:35:21.760Z,9.95
2019-05-21T02:38:28.301Z,8.20
2019-05-21T02:41:34.818Z,9.78
2019-05-21T02:44:44.633Z,6.92
2019-05-21T02:47:51.220Z,9.73
2019-05-21T02:50:57.767Z,6.30
2019-05-21T02:54:04.404Z,7.65
2019-05-21T02:57:11.035Z,8.55
2019-05-21T03:00:38.761Z,8.15
2019-05-21T03:03:48.005Z,8.73
2019-05-21T03:06:55.592Z,8.15
2019-05-21T03:10:03.188Z,7.45
2019-05-21T03:13:09.837Z,8.58
2019-05-21T03:16:16.520Z,9.18
2019-05-21T03:19:23.360Z,7.65
2019-05-21T03:22:32.094Z,8.40
2019-05-21T03:25:44.713Z,8.05
2019-05-21T03:28:52.482Z,8.45
2019-05-21T03:31:59.005Z,8.60
2019-05-21T03:35:05.959Z,8.48
2019-05-21T03:38:12.627Z,9.18
2019-05-21T03:41:19.146Z,8.30
2019-05-21T03:44:25.700Z,7.25
2019-05-21T03:47:32.207Z,9.08
2019-05-21T03:50:38.855Z,7.90
2019-05-21T03:53:48.140Z,6.22
2019-05-21T03:56:54.623Z,6.28
2019-05-21T04:00:01.253Z,7.62
2019-05-21T04:03:08.550Z,6.85
2019-05-21T04:06:15.073Z,6.67
2019-05-21T04:09:21.622Z,7.03
2019-05-21T04:12:28.145Z,8.00
2019-05-21T04:15:36.910Z,7.20
2019-05-21T04:18:56.986Z,6.53
2019-05-21T04:22:03.520Z,7.55
2019-05-21T04:25:10.161Z,8.23
2019-05-21T04:28:18.883Z,7.08
2019-05-21T04:31:25.536Z,7.90
2019-05-21T04:34:32.162Z,7.83
2019-05-21T04:37:38.739Z,8.25
2019-05-21T04:40:45.410Z,9.78
2019-05-21T04:43:51.841Z,6.17
2019-05-21T04:46:58.353Z,7.70
2019-05-21T04:50:05.534Z,8.18
2019-05-21T04:53:12.001Z,7.67
2019-05-21T04:56:18.522Z,10.10
2019-05-21T04:59:24.958Z,8.40
2019-05-21T05:02:31.376Z,7.78
2019-05-21T05:05:37.972Z,7.37
2019-05-21T05:08:45.806Z,6.72
2019-05-21T05:11:52.324Z,6.37
2019-05-21T05:14:58.872Z,6.00
2019-05-21T05:18:05.793Z,6.87
2019-05-21T05:21:12.284Z,7.53
2019-05-21T05:24:18.816Z,9.00
2019-05-21T05:27:25.209Z,7.12
2019-05-21T05:30:31.782Z,9.55
2019-05-21T05:33:42.809Z,7.30
2019-05-21T05:36:49.416Z,4.95
2019-05-21T05:39:55.813Z,6.40
2019-05-21T05:43:02.329Z,7.97
2019-05-21T05:46:08.855Z,6.87
2019-05-21T05:49:20.856Z,6.08
2019-05-21T05:52:27.437Z,6.28
2019-05-21T05:55:34.061Z,6.53
2019-05-21T05:58:40.445Z,7.22
2019-05-21T06:01:48.706Z,6.30
2019-05-21T06:04:55.169Z,8.00
2019-05-21T06:08:01.932Z,6.45
2019-05-21T06:11:08.400Z,5.53
2019-05-21T06:14:14.837Z,6.72
2019-05-21T06:17:21.280Z,7.42
2019-05-21T06:20:27.920Z,7.42
2019-05-21T06:23:34.415Z,7.60
2019-05-21T06:26:43.060Z,12.23
2019-05-21T06:29:49.149Z,7.95
2019-05-21T06:32:55.619Z,7.80
2019-05-21T06:36:02.469Z,6.85
2019-05-21T06:39:09.431Z,7.58
2019-05-21T06:42:15.829Z,7.33
2019-05-21T06:45:22.929Z,6.92
2019-05-21T06:48:29.428Z,6.65
2019-05-21T06:51:35.998Z,11.40
2019-05-21T06:54:43.739Z,7.08
2019-05-21T06:57:50.651Z,7.12
2019-05-21T07:00:57.398Z,6.25
2019-05-21T07:04:03.900Z,5.83
2019-05-21T07:07:10.470Z,7.17
2019-05-21T07:10:17.283Z,6.53
2019-05-21T07:13:23.833Z,5.10
2019-05-21T07:16:30.430Z,5.10
2019-05-21T07:19:37.026Z,8.28
2019-05-21T07:22:44.066Z,6.00
2019-05-21T07:25:50.552Z,4.40
2019-05-21T07:28:57.487Z,6.80
2019-05-21T07:32:04.225Z,5.50
2019-05-21T07:35:11.099Z,5.55
2019-05-21T07:38:18.671Z,6.08
2019-05-21T07:41:25.441Z,8.45
2019-05-21T07:44:34.620Z,5.95
2019-05-21T07:47:41.540Z,6.55
2019-05-21T07:50:47.936Z,6.05
2019-05-21T07:53:54.614Z,14.05
2019-05-21T07:57:01.006Z,6.72
2019-05-21T08:00:09.385Z,6.28
2019-05-21T08:03:15.893Z,5.47
2019-05-21T08:06:22.470Z,6.97
2019-05-21T08:09:29.199Z,6.20
2019-05-21T08:12:39.389Z,6.97
2019-05-21T08:15:50.230Z,5.30
2019-05-21T08:18:56.679Z,7.10
2019-05-21T08:22:06.461Z,8.55
2019-05-21T08:25:14.832Z,7.83
2019-05-21T08:28:22.272Z,8.23
2019-05-21T08:31:28.726Z,6.40
2019-05-21T08:34:35.483Z,5.65
2019-05-21T08:37:42.250Z,6.35
2019-05-21T08:40:48.916Z,8.93
2019-05-21T08:43:56.896Z,3.67
2019-05-21T08:47:03.402Z,5.80
2019-05-21T08:50:15.150Z,6.28
2019-05-21T08:53:21.691Z,6.60
2019-05-21T08:56:28.212Z,6.10
2019-05-21T08:59:34.834Z,5.35
2019-05-21T09:02:42.124Z,4.60
2019-05-21T09:05:48.706Z,7.12
2019-05-21T09:08:55.213Z,7.83
2019-05-21T09:12:01.759Z,6.60
2019-05-21T09:15:09.550Z,6.20
2019-05-21T09:18:16.039Z,4.67
2019-05-21T09:21:22.642Z,7.47
2019-05-21T09:24:29.125Z,8.10
2019-05-21T09:27:35.759Z,8.45
2019-05-21T09:30:45.365Z,5.95
2019-05-21T09:33:51.788Z,6.05
2019-05-21T09:36:58.536Z,8.60
2019-05-21T09:40:06.332Z,8.00
2019-05-21T09:43:13.139Z,9.45
2019-05-21T09:46:19.759Z,9.60
2019-05-21T09:49:26.289Z,8.25
2019-05-21T09:52:32.901Z,11.83
2019-05-21T09:55:39.512Z,8.65
2019-05-21T09:58:47.020Z,10.25
2019-05-21T10:02:00.602Z,9.60
2019-05-21T10:05:07.396Z,6.37
2019-05-21T10:08:16.212Z,11.68
2019-05-21T10:11:23.058Z,9.38
2019-05-21T10:14:33.720Z,5.95
2019-05-21T10:17:37.841Z,10.30
2019-05-21T10:20:47.636Z,11.05
2019-05-21T10:23:54.463Z,10.60
2019-05-21T10:27:03.405Z,9.15
2019-05-21T10:30:10.160Z,10.82
2019-05-21T10:33:16.609Z,11.03
2019-05-21T10:36:24.424Z,8.10
2019-05-21T10:39:30.901Z,5.28
2019-05-21T10:42:37.661Z,8.50
2019-05-21T10:45:46.752Z,8.40
2019-05-21T10:48:53.415Z,9.60
2019-05-21T10:51:59.832Z,8.98
2019-05-21T10:55:07.211Z,10.15
2019-05-21T10:58:13.778Z,9.10
2019-05-21T11:01:26.552Z,10.80
2019-05-21T11:04:55.527Z,11.83
2019-05-21T11:08:22.983Z,9.70
2019-05-21T11:11:10.425Z,8.70
2019-05-21T11:14:17.146Z,10.72
2019-05-21T11:17:24.005Z,9.15
2019-05-21T11:20:30.634Z,5.58
2019-05-21T11:23:37.208Z,6.53
2019-05-21T11:26:46.663Z,7.70
2019-05-21T11:29:53.165Z,9.15
2019-05-21T11:32:59.847Z,8.23
2019-05-21T11:36:07.378Z,7.75
2019-05-21T11:39:13.992Z,6.65
2019-05-21T11:42:20.679Z,10.20
2019-05-21T11:45:32.233Z,5.95
2019-05-21T11:48:35.854Z,8.18
2019-05-21T11:51:43.129Z,8.88
2019-05-21T11:54:50.139Z,7.85
2019-05-21T11:58:00.141Z,9.88
2019-05-21T12:01:06.865Z,7.95
2019-05-21T12:04:14.308Z,7.20
2019-05-21T12:07:21.115Z,7.25
2019-05-21T12:10:27.727Z,5.92
2019-05-21T12:13:34.212Z,8.20
2019-05-21T12:16:43.714Z,9.33
2019-05-21T12:19:49.417Z,8.75
2019-05-21T12:22:55.958Z,9.18
2019-05-21T12:26:02.588Z,8.20
2019-05-21T12:29:09.338Z,5.58
2019-05-21T12:32:15.807Z,6.90
2019-05-21T12:35:22.623Z,8.80
2019-05-21T12:38:29.169Z,6.65
2019-05-21T12:41:35.952Z,6.15
2019-05-21T12:44:45.408Z,6.47
2019-05-21T12:47:51.955Z,4.95
2019-05-21T12:50:59.750Z,5.47
2019-05-21T12:54:06.591Z,6.62
2019-05-21T12:57:13.137Z,7.87
2019-05-21T13:00:20.283Z,5.75
2019-05-21T13:03:26.822Z,6.08
2019-05-21T13:06:35.381Z,4.50
2019-05-21T13:09:43.139Z,6.10
2019-05-21T13:12:51.263Z,5.28
2019-05-21T13:15:58.766Z,3.22
2019-05-21T13:19:05.385Z,5.40
2019-05-21T13:22:12.048Z,3.75
2019-05-21T13:25:19.022Z,6.37
2019-05-21T13:28:25.517Z,5.15
2019-05-21T13:31:32.057Z,5.70
2019-05-21T13:34:38.518Z,5.90
2019-05-21T13:37:46.400Z,5.53
2019-05-21T13:40:53.810Z,5.97
2019-05-21T13:44:00.360Z,5.17
2019-05-21T13:47:07.146Z,5.42
2019-05-21T13:50:14.121Z,6.97
2019-05-21T13:53:22.056Z,7.83
2019-05-21T13:56:28.959Z,6.45
2019-05-21T13:59:35.792Z,7.87
2019-05-21T14:02:45.456Z,7.17
2019-05-21T14:05:52.130Z,7.12
2019-05-21T14:08:58.731Z,7.90
2019-05-21T14:12:05.762Z,9.30
2019-05-21T14:15:13.520Z,7.00
2019-05-21T14:18:20.106Z,7.80
2019-05-21T14:21:27.749Z,7.62
2019-05-21T14:24:34.300Z,5.72
2019-05-21T14:27:44.905Z,6.50
2019-05-21T14:30:49.530Z,8.85
2019-05-21T14:33:56.317Z,6.87
2019-05-21T14:37:02.816Z,7.30
2019-05-21T14:40:10.919Z,7.65
2019-05-21T14:43:17.440Z,6.90
2019-05-21T14:46:23.962Z,7.12
2019-05-21T14:49:30.743Z,6.00
2019-05-21T14:52:37.244Z,5.78
2019-05-21T14:55:47.830Z,6.42
2019-05-21T14:58:54.302Z,6.90
2019-05-21T15:02:00.777Z,7.50
2019-05-21T15:05:07.721Z,8.05
2019-05-21T15:08:14.188Z,5.33
2019-05-21T15:11:20.699Z,6.60
2019-05-21T15:14:27.219Z,6.25
2019-05-21T15:17:33.627Z,9.10
2019-05-21T15:20:51.404Z,8.50
2019-05-21T15:24:00.152Z,5.17
2019-05-21T15:27:06.796Z,6.30
2019-05-21T15:30:13.593Z,9.20
2019-05-21T15:33:20.167Z,6.72
2019-05-21T15:36:26.695Z,7.22
2019-05-21T15:39:33.325Z,7.10
2019-05-21T15:42:41.879Z,8.05
2019-05-21T15:45:48.361Z,8.55
2019-05-21T15:48:54.826Z,8.00
2019-05-21T15:52:01.444Z,7.60
2019-05-21T15:55:09.317Z,7.85
2019-05-21T15:58:16.042Z,7.12
2019-05-21T16:01:22.601Z,7.47
2019-05-21T16:04:29.128Z,6.37
2019-05-21T16:07:35.804Z,7.05
2019-05-21T16:10:44.230Z,6.33
2019-05-21T16:13:50.812Z,8.38
2019-05-21T16:16:57.385Z,10.05
2019-05-21T16:20:07.112Z,8.10
2019-05-21T16:23:13.606Z,9.58
2019-05-21T16:26:23.417Z,9.00
2019-05-21T16:29:29.742Z,8.20
2019-05-21T16:32:37.158Z,7.42
2019-05-21T16:35:45.477Z,8.20
2019-05-21T16:38:52.066Z,6.80
2019-05-21T16:41:58.608Z,10.38
2019-05-21T16:45:05.748Z,7.10
2019-05-21T16:48:12.340Z,8.70
2019-05-21T16:51:19.510Z,7.35
2019-05-21T16:54:28.655Z,7.40
2019-05-21T16:57:35.588Z,9.60
2019-05-21T17:00:45.292Z,9.78
2019-05-21T17:04:00.059Z,6.67
2019-05-21T17:07:01.862Z,9.13
2019-05-21T17:10:12.163Z,9.95
2019-05-21T17:13:18.667Z,10.30
2019-05-21T17:16:25.750Z,8.25
2019-05-21T17:19:32.219Z,8.70
2019-05-21T17:22:38.815Z,8.30
2019-05-21T17:25:46.852Z,8.00
2019-05-21T17:28:53.354Z,11.93
2019-05-21T17:31:59.850Z,8.38
2019-05-21T17:35:07.019Z,11.63
2019-05-21T17:38:13.599Z,13.43
2019-05-21T17:41:20.266Z,22.42
2019-05-21T17:44:26.825Z,15.88
2019-05-21T17:47:33.350Z,16.57
2019-05-21T17:50:39.996Z,12.70
2019-05-21T17:53:49.109Z,9.93
2019-05-21T17:56:55.567Z,11.85
2019-05-21T18:00:02.283Z,10.13
2019-05-21T18:03:09.088Z,8.28
2019-05-21T18:06:16.290Z,10.80
2019-05-21T18:09:26.585Z,8.93
2019-05-21T18:12:33.023Z,11.73
2019-05-21T18:15:40.061Z,12.82
2019-05-21T18:18:46.850Z,15.48
2019-05-21T18:21:53.810Z,11.83
2019-05-21T18:25:00.610Z,13.28
2019-05-21T18:28:07.630Z,12.05
2019-05-21T18:31:14.486Z,10.18
2019-05-21T18:34:21.006Z,12.75
2019-05-21T18:37:28.699Z,7.50
2019-05-21T18:40:35.251Z,11.15
2019-05-21T18:43:42.115Z,10.25
2019-05-21T18:46:48.762Z,8.70
2019-05-21T18:49:55.631Z,12.03
2019-05-21T18:53:02.139Z,19.85
2019-05-21T18:56:08.762Z,22.65
2019-05-21T18:59:15.331Z,25.30
2019-05-21T19:02:21.962Z,18.65
2019-05-21T19:05:29.658Z,17.73
2019-05-21T19:08:37.630Z,14.55
2019-05-21T19:11:46.281Z,16.82
2019-05-21T19:14:53.029Z,14.28
2019-05-21T19:17:59.608Z,13.95
2019-05-21T19:21:06.509Z,15.63
2019-05-21T19:24:13.181Z,16.60
2019-05-21T19:27:19.844Z,14.13
2019-05-21T19:30:26.411Z,13.35
2019-05-21T19:33:34.141Z,16.30
2019-05-21T19:36:41.263Z,10.35
2019-05-21T19:43:19.058Z,14.43
2019-05-21T19:46:25.812Z,12.85
2019-05-21T19:49:32.367Z,13.50
2019-05-21T19:52:38.988Z,12.30
2019-05-21T19:55:45.909Z,11.40
2019-05-21T19:58:52.681Z,11.83
2019-05-21T20:01:59.217Z,11.73
2019-05-21T20:05:06.194Z,13.32
2019-05-21T20:08:14.507Z,11.63
2019-05-21T20:11:21.192Z,12.88
2019-05-21T20:14:30.920Z,13.35
2019-05-21T20:17:38.827Z,13.53
2019-05-21T20:20:46.176Z,14.98
2019-05-21T20:23:56.225Z,18.77
2019-05-21T20:27:02.807Z,16.62
2019-05-21T20:30:14.447Z,10.98
2019-05-21T20:33:20.367Z,15.30
2019-05-21T20:36:27.542Z,15.32
2019-05-21T20:39:35.139Z,18.23
2019-05-21T20:42:47.537Z,17.32
2019-05-21T20:45:54.980Z,14.30
2019-05-21T20:49:01.808Z,16.23
2019-05-21T20:52:18.087Z,14.25
2019-05-21T20:55:19.058Z,14.18
2019-05-21T20:58:26.034Z,17.82
2019-05-21T21:01:32.943Z,17.82
2019-05-21T21:04:39.801Z,17.62
2019-05-21T21:07:49.527Z,16.40
2019-05-21T21:10:56.779Z,15.35
2019-05-21T21:14:17.445Z,18.90
2019-05-21T21:17:14.521Z,15.68
2019-05-21T21:20:21.532Z,19.62
2019-05-21T21:23:29.817Z,13.62
2019-05-21T21:26:36.681Z,16.60
2019-05-21T21:29:44.679Z,15.48
2019-05-21T21:32:55.235Z,12.58
2019-05-21T21:36:01.713Z,17.70
2019-05-21T21:39:10.674Z,17.95
2019-05-21T21:42:18.273Z,18.73
2019-05-21T21:45:26.018Z,13.93
2019-05-21T21:48:32.749Z,15.38
2019-05-21T21:51:39.506Z,20.52
2019-05-21T21:54:46.812Z,14.25
2019-05-21T21:57:54.490Z,13.85
2019-05-21T22:01:49.422Z,12.37
2019-05-21T22:04:57.667Z,10.58
2019-05-21T22:08:05.103Z,13.93
2019-05-21T22:11:14.784Z,13.22
2019-05-21T22:14:24.252Z,17.15
2019-05-21T22:17:31.220Z,12.85
2019-05-21T22:20:38.225Z,15.53
2019-05-21T22:23:45.165Z,11.90
2019-05-21T22:26:51.868Z,13.65
2019-05-21T22:29:58.663Z,12.03
2019-05-21T22:33:06.322Z,13.50
2019-05-21T22:36:12.928Z,13.28
2019-05-21T22:39:26.892Z,13.18
2019-05-21T22:42:36.573Z,12.33
2019-05-21T22:45:46.156Z,13.80
2019-05-21T22:48:52.776Z,13.78
2019-05-21T22:51:59.346Z,13.20
2019-05-21T22:55:06.058Z,11.08
2019-05-21T22:58:12.913Z,13.65
2019-05-21T23:01:19.538Z,12.03
2019-05-21T23:04:26.374Z,10.45
2019-05-21T23:07:34.675Z,9.38
2019-05-21T23:10:41.617Z,11.78
2019-05-21T23:13:52.530Z,10.32
2019-05-21T23:17:01.042Z,9.30
2019-05-21T23:20:14.905Z,8.15
2019-05-21T23:23:25.811Z,7.75
2019-05-21T23:26:38.035Z,10.00
2019-05-21T23:29:45.210Z,9.50
2019-05-21T23:32:52.183Z,10.18
2019-05-21T23:35:58.979Z,8.10
2019-05-21T23:39:09.665Z,14.60
2019-05-21T23:42:28.655Z,10.32
2019-05-21T23:45:26.970Z,9.15
2019-05-21T23:48:33.515Z,16.20
2019-05-21T23:51:41.272Z,14.45
2019-05-21T23:54:48.094Z,16.23
2019-05-21T23:57:56.713Z,12.73
